PRIVATE WETTERSTATION BILLIGHEIM-ALLFELD                       ZURCK
Wetterdaten: Montag, 29.12.2014
Datum Zeit Temp. A. Temp. A. min Temp. A. max Feuchte A. Luftdruck Regen Wind Richtung Richtung Sonnenschein ET Solar Taupunkt Windchill Windben Empfang
29.12.2014 00:00 -10,9 C -10,9 C -10,6 C 89 % 1032,8 hPa 0,0 l/m 0,0 km/h (0 Bft) N 0 0 min 0,000 mm 0 W/m -12,3 C -10,9 C 0,0 km/h (0 Bft) 100 %
29.12.2014 00:10 -10,8 C -11,0 C -10,8 C 90 % 1032,9 hPa 0,0 l/m 0,0 km/h (0 Bft) N 0 0 min 0,000 mm 0 W/m -12,1 C -10,8 C 0,0 km/h (0 Bft) 100 %
29.12.2014 00:20 -11,0 C -11,0 C -10,8 C 89 % 1032,9 hPa 0,0 l/m 0,0 km/h (0 Bft) N 0 0 min 0,000 mm 0 W/m -12,4 C -11,0 C 0,0 km/h (0 Bft) 100 %
29.12.2014 00:30 -11,5 C -11,5 C -11,0 C 88 % 1032,9 hPa 0,0 l/m 0,0 km/h (0 Bft) N 360 0 min 0,000 mm 0 W/m -13,1 C -11,5 C 1,6 km/h (1 Bft) 100 %
29.12.2014 00:40 -11,6 C -11,6 C -11,5 C 88 % 1032,8 hPa 0,0 l/m 0,0 km/h (0 Bft) N 0 0 min 0,000 mm 0 W/m -13,2 C -11,6 C 0,0 km/h (0 Bft) 100 %
29.12.2014 00:50 -11,6 C -11,7 C -11,6 C 89 % 1033,0 hPa 0,0 l/m 0,0 km/h (0 Bft) N 0 0 min 0,000 mm 0 W/m -13,0 C -11,6 C 0,0 km/h (0 Bft) 100 %
29.12.2014 01:00 -11,7 C -11,7 C -11,6 C 88 % 1033,3 hPa 0,0 l/m 0,0 km/h (0 Bft) N 0 0 min 0,000 mm 0 W/m -13,3 C -11,7 C 0,0 km/h (0 Bft) 100 %
29.12.2014 01:10 -11,8 C -11,8 C -11,7 C 88 % 1033,3 hPa 0,0 l/m 0,0 km/h (0 Bft) N 0 0 min 0,000 mm 0 W/m -13,4 C -11,8 C 0,0 km/h (0 Bft) 100 %
29.12.2014 01:20 -11,7 C -11,8 C -11,7 C 89 % 1033,4 hPa 0,0 l/m 0,0 km/h (0 Bft) N 0 0 min 0,000 mm 0 W/m -13,1 C -11,7 C 0,0 km/h (0 Bft) 89 %
29.12.2014 01:30 -11,7 C -11,7 C -11,6 C 89 % 1033,3 hPa 0,0 l/m 0,0 km/h (0 Bft) N 0 0 min 0,000 mm 0 W/m -13,1 C -11,7 C 0,0 km/h (0 Bft) 100 %
29.12.2014 01:40 -11,2 C -11,7 C -11,2 C 91 % 1033,5 hPa 0,0 l/m 0,0 km/h (0 Bft) O-NO 67 0 min 0,000 mm 0 W/m -12,4 C -11,2 C 1,6 km/h (1 Bft) 100 %
29.12.2014 01:50 -10,9 C -11,2 C -10,9 C 91 % 1033,3 hPa 0,0 l/m 0,0 km/h (0 Bft) N 0 0 min 0,000 mm 0 W/m -12,1 C -10,9 C 0,0 km/h (0 Bft) 100 %
29.12.2014 02:00 -10,2 C -10,9 C -10,2 C 92 % 1033,2 hPa 0,0 l/m 0,0 km/h (0 Bft) O 90 0 min 0,000 mm 0 W/m -11,2 C -10,2 C 3,2 km/h (1 Bft) 100 %
29.12.2014 02:10 -9,9 C -10,2 C -9,9 C 91 % 1033,4 hPa 0,0 l/m 0,0 km/h (0 Bft) O 90 0 min 0,000 mm 0 W/m -11,1 C -9,9 C 1,6 km/h (1 Bft) 100 %
29.12.2014 02:20 -9,9 C -10,0 C -9,9 C 91 % 1033,4 hPa 0,0 l/m 0,0 km/h (0 Bft) O 90 0 min 0,000 mm 0 W/m -11,1 C -9,9 C 3,2 km/h (1 Bft) 100 %
29.12.2014 02:30 -10,3 C -10,3 C -9,9 C 88 % 1033,6 hPa 0,0 l/m 0,0 km/h (0 Bft) N 0 0 min 0,000 mm 0 W/m -11,9 C -10,3 C 0,0 km/h (0 Bft) 100 %
29.12.2014 02:40 -11,0 C -11,0 C -10,3 C 85 % 1033,6 hPa 0,0 l/m 0,0 km/h (0 Bft) N 0 0 min 0,000 mm 0 W/m -13,0 C -11,0 C 0,0 km/h (0 Bft) 100 %
29.12.2014 02:50 -11,5 C -11,5 C -11,1 C 87 % 1033,8 hPa 0,0 l/m 0,0 km/h (0 Bft) O 90 0 min 0,000 mm 0 W/m -13,2 C -11,5 C 1,6 km/h (1 Bft) 100 %
29.12.2014 03:00 -11,4 C -11,7 C -11,4 C 90 % 1033,7 hPa 0,0 l/m 0,0 km/h (0 Bft) O-SO 112 0 min 0,000 mm 0 W/m -12,7 C -11,4 C 4,8 km/h (1 Bft) 100 %
29.12.2014 03:10 -10,9 C -11,4 C -10,9 C 91 % 1033,5 hPa 0,0 l/m 1,6 km/h (1 Bft) SO 135 0 min 0,000 mm 0 W/m -12,1 C -10,9 C 6,4 km/h (2 Bft) 100 %
29.12.2014 03:20 -10,4 C -10,9 C -10,4 C 91 % 1033,7 hPa 0,0 l/m 1,6 km/h (1 Bft) SO 135 0 min 0,000 mm 0 W/m -11,6 C -10,4 C 6,4 km/h (2 Bft) 98 %
29.12.2014 03:30 -10,5 C -10,5 C -10,4 C 91 % 1033,8 hPa 0,0 l/m 0,0 km/h (0 Bft) SO 135 0 min 0,000 mm 0 W/m -11,7 C -10,5 C 3,2 km/h (1 Bft) 88 %
29.12.2014 03:40 -10,8 C -10,8 C -10,5 C 90 % 1034,0 hPa 0,0 l/m 0,0 km/h (0 Bft) SO 135 0 min 0,000 mm 0 W/m -12,1 C -10,8 C 1,6 km/h (1 Bft) 98 %
29.12.2014 03:50 -11,0 C -11,0 C -10,8 C 89 % 1034,0 hPa 0,0 l/m 0,0 km/h (0 Bft) SO 135 0 min 0,000 mm 0 W/m -12,4 C -11,0 C 1,6 km/h (1 Bft) 100 %
29.12.2014 04:00 -11,0 C -11,1 C -10,9 C 91 % 1033,7 hPa 0,0 l/m 0,0 km/h (0 Bft) SO 135 0 min 0,000 mm 0 W/m -12,2 C -11,0 C 3,2 km/h (1 Bft) 100 %
29.12.2014 04:10 -10,8 C -11,0 C -10,8 C 91 % 1033,9 hPa 0,0 l/m 0,0 km/h (0 Bft) SO 135 0 min 0,000 mm 0 W/m -12,0 C -10,8 C 3,2 km/h (1 Bft) 91 %
29.12.2014 04:20 -10,8 C -10,8 C -10,8 C 91 % 1033,8 hPa 0,0 l/m 0,0 km/h (0 Bft) SO 135 0 min 0,000 mm 0 W/m -12,0 C -10,8 C 3,2 km/h (1 Bft) 100 %
29.12.2014 04:30 -10,7 C -10,8 C -10,7 C 91 % 1033,6 hPa 0,0 l/m 1,6 km/h (1 Bft) SO 135 0 min 0,000 mm 0 W/m -11,9 C -10,7 C 6,4 km/h (2 Bft) 99 %
29.12.2014 04:40 -10,7 C -10,8 C -10,7 C 91 % 1033,5 hPa 0,0 l/m 1,6 km/h (1 Bft) SO 135 0 min 0,000 mm 0 W/m -11,9 C -10,7 C 4,8 km/h (1 Bft) 100 %
29.12.2014 04:50 -10,8 C -10,8 C -10,7 C 91 % 1033,3 hPa 0,0 l/m 1,6 km/h (1 Bft) S-SO 157 0 min 0,000 mm 0 W/m -12,0 C -10,8 C 6,4 km/h (2 Bft) 100 %
29.12.2014 05:00 -10,9 C -10,9 C -10,8 C 91 % 1033,1 hPa 0,0 l/m 4,8 km/h (1 Bft) SO 135 0 min 0,000 mm 0 W/m -12,1 C -10,9 C 8,0 km/h (2 Bft) 100 %
29.12.2014 05:10 -10,8 C -10,9 C -10,8 C 91 % 1033,0 hPa 0,0 l/m 3,2 km/h (1 Bft) S-SO 157 0 min 0,000 mm 0 W/m -12,0 C -10,8 C 9,7 km/h (2 Bft) 99 %
29.12.2014 05:20 -10,8 C -10,8 C -10,8 C 91 % 1032,6 hPa 0,0 l/m 6,4 km/h (2 Bft) S-SO 157 0 min 0,000 mm 0 W/m -12,0 C -10,7 C 11,3 km/h (2 Bft) 100 %
29.12.2014 05:30 -10,8 C -10,8 C -10,8 C 91 % 1032,6 hPa 0,0 l/m 3,2 km/h (1 Bft) SO 135 0 min 0,000 mm 0 W/m -12,0 C -10,8 C 8,0 km/h (2 Bft) 99 %
29.12.2014 05:40 -10,9 C -10,9 C -10,8 C 91 % 1032,5 hPa 0,0 l/m 4,8 km/h (1 Bft) S-SO 157 0 min 0,000 mm 0 W/m -12,1 C -10,9 C 8,0 km/h (2 Bft) 89 %
29.12.2014 05:50 -10,9 C -10,9 C -10,9 C 92 % 1032,2 hPa 0,0 l/m 6,4 km/h (2 Bft) S-SO 157 0 min 0,000 mm 0 W/m -11,9 C -10,8 C 16,1 km/h (3 Bft) 100 %
29.12.2014 06:00 -10,8 C -10,9 C -10,8 C 91 % 1032,3 hPa 0,0 l/m 1,6 km/h (1 Bft) S-SO 157 0 min 0,000 mm 0 W/m -12,0 C -10,8 C 6,4 km/h (2 Bft) 100 %
29.12.2014 06:10 -10,8 C -10,9 C -10,8 C 91 % 1032,3 hPa 0,0 l/m 0,0 km/h (0 Bft) S-SO 157 0 min 0,000 mm 0 W/m -12,0 C -10,8 C 4,8 km/h (1 Bft) 100 %
29.12.2014 06:20 -10,6 C -10,8 C -10,6 C 92 % 1032,2 hPa 0,0 l/m 0,0 km/h (0 Bft) S-SO 157 0 min 0,000 mm 0 W/m -11,6 C -10,6 C 4,8 km/h (1 Bft) 99 %
29.12.2014 06:30 -10,3 C -10,6 C -10,3 C 92 % 1032,1 hPa 0,0 l/m 0,0 km/h (0 Bft) S-SO 157 0 min 0,000 mm 0 W/m -11,3 C -10,3 C 3,2 km/h (1 Bft) 100 %
29.12.2014 06:40 -10,0 C -10,3 C -10,0 C 92 % 1032,0 hPa 0,0 l/m 0,0 km/h (0 Bft) S-SO 157 0 min 0,000 mm 0 W/m -11,0 C -10,0 C 3,2 km/h (1 Bft) 100 %
29.12.2014 06:50 -9,6 C -10,0 C -9,6 C 92 % 1032,0 hPa 0,0 l/m 1,6 km/h (1 Bft) S-SO 157 0 min 0,000 mm 0 W/m -10,6 C -9,6 C 4,8 km/h (1 Bft) 99 %
29.12.2014 07:00 -9,3 C -9,6 C -9,3 C 92 % 1031,7 hPa 0,0 l/m 1,6 km/h (1 Bft) S-SO 157 0 min 0,000 mm 0 W/m -10,4 C -9,3 C 8,0 km/h (2 Bft) 100 %
29.12.2014 07:10 -9,2 C -9,3 C -9,2 C 92 % 1031,4 hPa 0,0 l/m 4,8 km/h (1 Bft) S-SO 157 0 min 0,000 mm 0 W/m -10,3 C -9,2 C 9,7 km/h (2 Bft) 99 %
29.12.2014 07:20 -9,0 C -9,1 C -9,0 C 92 % 1031,6 hPa 0,0 l/m 4,8 km/h (1 Bft) S 180 0 min 0,000 mm 0 W/m -10,1 C -9,0 C 14,5 km/h (3 Bft) 100 %
29.12.2014 07:30 -9,0 C -9,0 C -9,0 C 92 % 1031,5 hPa 0,0 l/m 4,8 km/h (1 Bft) S 180 0 min 0,000 mm 0 W/m -10,1 C -9,0 C 11,3 km/h (2 Bft) 100 %
29.12.2014 07:40 -8,9 C -9,0 C -8,9 C 92 % 1031,4 hPa 0,0 l/m 4,8 km/h (1 Bft) S-SO 157 0 min 0,000 mm 0 W/m -10,0 C -8,9 C 9,7 km/h (2 Bft) 100 %
29.12.2014 07:50 -8,8 C -8,9 C -8,8 C 92 % 1031,4 hPa 0,0 l/m 3,2 km/h (1 Bft) S 180 0 min 0,000 mm 0 W/m -9,9 C -8,8 C 8,0 km/h (2 Bft) 100 %
29.12.2014 08:00 -8,7 C -8,8 C -8,7 C 92 % 1031,3 hPa 0,0 l/m 3,2 km/h (1 Bft) S 180 0 min 0,000 mm 0 W/m -9,8 C -8,7 C 9,7 km/h (2 Bft) 100 %
29.12.2014 08:10 -8,4 C -8,6 C -8,4 C 92 % 1031,1 hPa 0,0 l/m 3,2 km/h (1 Bft) S 180 0 min 0,000 mm 0 W/m -9,5 C -8,4 C 9,7 km/h (2 Bft) 100 %
29.12.2014 08:20 -8,2 C -8,4 C -8,2 C 92 % 1031,4 hPa 0,2 l/m 3,2 km/h (1 Bft) S 180 0 min 0,000 mm 0 W/m -9,3 C -8,2 C 8,0 km/h (2 Bft) 100 %
29.12.2014 08:30 -8,0 C -8,2 C -8,0 C 92 % 1031,3 hPa 0,0 l/m 3,2 km/h (1 Bft) S 180 0 min 0,000 mm 0 W/m -9,1 C -8,0 C 8,0 km/h (2 Bft) 100 %
29.12.2014 08:40 -7,8 C -8,0 C -7,8 C 92 % 1031,3 hPa 0,2 l/m 1,6 km/h (1 Bft) S-SO 157 0 min 0,000 mm 0 W/m -8,9 C -7,8 C 6,4 km/h (2 Bft) 99 %
29.12.2014 08:50 -7,6 C -7,8 C -7,6 C 92 % 1031,4 hPa 0,0 l/m 1,6 km/h (1 Bft) SO 135 0 min 0,000 mm 0 W/m -8,7 C -7,6 C 6,4 km/h (2 Bft) 100 %
29.12.2014 09:00 -7,4 C -7,6 C -7,4 C 92 % 1031,4 hPa 0,4 l/m 1,6 km/h (1 Bft) S-SO 157 0 min 0,000 mm 0 W/m -8,5 C -7,4 C 4,8 km/h (1 Bft) 100 %
29.12.2014 09:10 -7,2 C -7,4 C -7,2 C 92 % 1031,2 hPa 0,2 l/m 1,6 km/h (1 Bft) S 180 0 min 0,000 mm 0 W/m -8,3 C -7,2 C 6,4 km/h (2 Bft) 100 %
29.12.2014 09:20 -6,8 C -7,2 C -6,8 C 92 % 1031,2 hPa 0,4 l/m 1,6 km/h (1 Bft) S-SW 202 0 min 0,000 mm 5 W/m -7,9 C -6,8 C 9,7 km/h (2 Bft) 100 %
29.12.2014 09:30 -6,4 C -6,8 C -6,4 C 92 % 1031,2 hPa 0,0 l/m 3,2 km/h (1 Bft) W 270 0 min 0,000 mm 7 W/m -7,5 C -6,4 C 11,3 km/h (2 Bft) 98 %
29.12.2014 09:40 -6,1 C -6,4 C -6,1 C 92 % 1031,3 hPa 0,0 l/m 3,2 km/h (1 Bft) W-SW 247 0 min 0,000 mm 9 W/m -7,2 C -6,1 C 9,7 km/h (2 Bft) 100 %
29.12.2014 09:50 -5,9 C -6,1 C -5,9 C 92 % 1031,6 hPa 0,2 l/m 1,6 km/h (1 Bft) W 270 0 min 0,000 mm 9 W/m -7,0 C -5,9 C 9,7 km/h (2 Bft) 90 %
29.12.2014 10:00 -5,8 C -5,9 C -5,8 C 92 % 1031,5 hPa 0,0 l/m 3,2 km/h (1 Bft) W 270 0 min 0,000 mm 7 W/m -6,9 C -5,8 C 9,7 km/h (2 Bft) 100 %
29.12.2014 10:10 -5,8 C -5,8 C -5,8 C 92 % 1031,5 hPa 0,0 l/m 4,8 km/h (1 Bft) W-SW 247 0 min 0,000 mm 7 W/m -6,9 C -5,8 C 17,7 km/h (3 Bft) 100 %
29.12.2014 10:20 -5,7 C -5,8 C -5,7 C 92 % 1031,6 hPa 0,1 l/m 4,8 km/h (1 Bft) W 270 0 min 0,000 mm 9 W/m -6,8 C -5,7 C 9,7 km/h (2 Bft) 100 %
29.12.2014 10:30 -5,7 C -5,7 C -5,7 C 92 % 1031,5 hPa 0,0 l/m 4,8 km/h (1 Bft) W 270 0 min 0,000 mm 9 W/m -6,8 C -5,7 C 9,7 km/h (2 Bft) 99 %
29.12.2014 10:40 -5,6 C -5,7 C -5,6 C 92 % 1031,5 hPa 0,1 l/m 3,2 km/h (1 Bft) W 270 0 min 0,000 mm 11 W/m -6,7 C -5,6 C 9,7 km/h (2 Bft) 99 %
29.12.2014 10:50 -5,6 C -5,6 C -5,6 C 92 % 1031,5 hPa 0,0 l/m 3,2 km/h (1 Bft) W 270 0 min 0,000 mm 11 W/m -6,7 C -5,6 C 11,3 km/h (2 Bft) 100 %
29.12.2014 11:00 -5,5 C -5,6 C -5,5 C 92 % 1031,6 hPa 0,0 l/m 6,4 km/h (2 Bft) W 270 0 min 0,000 mm 12 W/m -6,6 C -5,4 C 16,1 km/h (3 Bft) 99 %
29.12.2014 11:10 -5,4 C -5,5 C -5,4 C 92 % 1031,6 hPa 0,0 l/m 8,0 km/h (2 Bft) W 270 0 min 0,000 mm 12 W/m -6,5 C -7,3 C 19,3 km/h (3 Bft) 100 %
29.12.2014 11:20 -5,3 C -5,4 C -5,3 C 92 % 1031,4 hPa 0,0 l/m 6,4 km/h (2 Bft) W 270 0 min 0,000 mm 19 W/m -6,4 C -5,2 C 19,3 km/h (3 Bft) 99 %
29.12.2014 11:30 -5,3 C -5,3 C -5,2 C 92 % 1031,2 hPa 0,1 l/m 6,4 km/h (2 Bft) W 270 0 min 0,000 mm 19 W/m -6,4 C -5,2 C 17,7 km/h (3 Bft) 99 %
29.12.2014 11:40 -5,2 C -5,3 C -5,2 C 92 % 1031,2 hPa 0,0 l/m 4,8 km/h (1 Bft) W 270 0 min 0,000 mm 19 W/m -6,3 C -5,2 C 11,3 km/h (2 Bft) 98 %
29.12.2014 11:50 -5,1 C -5,2 C -5,1 C 92 % 1031,2 hPa 0,1 l/m 3,2 km/h (1 Bft) W-SW 247 0 min 0,000 mm 25 W/m -6,2 C -5,1 C 12,9 km/h (3 Bft) 98 %
29.12.2014 12:00 -5,1 C -5,1 C -5,1 C 92 % 1031,1 hPa 0,0 l/m 6,4 km/h (2 Bft) W 270 0 min 0,000 mm 18 W/m -6,2 C -5,0 C 17,7 km/h (3 Bft) 99 %
29.12.2014 12:10 -4,9 C -5,1 C -4,9 C 92 % 1031,1 hPa 0,1 l/m 3,2 km/h (1 Bft) W 270 0 min 0,000 mm 37 W/m -6,0 C -4,9 C 11,3 km/h (2 Bft) 97 %
29.12.2014 12:20 -4,6 C -4,8 C -4,6 C 92 % 1031,1 hPa 0,0 l/m 3,2 km/h (1 Bft) W 270 0 min 0,000 mm 33 W/m -5,7 C -4,6 C 8,0 km/h (2 Bft) 98 %
29.12.2014 12:30 -4,4 C -4,6 C -4,4 C 92 % 1031,0 hPa 0,0 l/m 1,6 km/h (1 Bft) W 270 0 min 0,000 mm 18 W/m -5,5 C -4,4 C 9,7 km/h (2 Bft) 98 %
29.12.2014 12:40 -4,4 C -4,5 C -4,4 C 92 % 1031,0 hPa 0,0 l/m 3,2 km/h (1 Bft) W 270 0 min 0,000 mm 12 W/m -5,5 C -4,4 C 9,7 km/h (2 Bft) 97 %
29.12.2014 12:50 -4,3 C -4,4 C -4,3 C 91 % 1031,0 hPa 0,0 l/m 3,2 km/h (1 Bft) W-SW 247 0 min 0,000 mm 12 W/m -5,5 C -4,3 C 9,7 km/h (2 Bft) 94 %
29.12.2014 13:00 -4,4 C -4,4 C -4,3 C 91 % 1030,9 hPa 0,0 l/m 3,2 km/h (1 Bft) W 270 0 min 0,000 mm 14 W/m -5,6 C -4,4 C 9,7 km/h (2 Bft) 93 %
29.12.2014 13:10 -4,4 C -4,4 C -4,4 C 91 % 1031,1 hPa 0,0 l/m 4,8 km/h (1 Bft) W 270 0 min 0,000 mm 16 W/m -5,6 C -4,4 C 9,7 km/h (2 Bft) 97 %
29.12.2014 13:20 -4,5 C -4,5 C -4,4 C 91 % 1031,0 hPa 0,0 l/m 1,6 km/h (1 Bft) W 270 0 min 0,000 mm 16 W/m -5,7 C -4,5 C 8,0 km/h (2 Bft) 98 %
29.12.2014 13:30 -4,5 C -4,5 C -4,4 C 91 % 1031,1 hPa 0,0 l/m 3,2 km/h (1 Bft) SW 225 0 min 0,000 mm 11 W/m -5,7 C -4,5 C 8,0 km/h (2 Bft) 100 %
29.12.2014 13:40 -4,5 C -4,5 C -4,5 C 92 % 1031,2 hPa 0,0 l/m 3,2 km/h (1 Bft) W 269 0 min 0,000 mm 12 W/m -5,6 C -4,5 C 9,7 km/h (2 Bft) 100 %
29.12.2014 13:50 -4,5 C -4,5 C -4,5 C 92 % 1031,3 hPa 0,0 l/m 0,9 km/h (0 Bft) W-SW 254 0 min 0,000 mm 12 W/m -5,6 C -4,5 C 4,8 km/h (1 Bft) 99 %
29.12.2014 14:00 -4,4 C -4,5 C -4,4 C 92 % 1031,3 hPa 0,0 l/m 1,2 km/h (1 Bft) SW 231 0 min 0,000 mm 11 W/m -5,5 C -4,4 C 6,4 km/h (2 Bft) 99 %
29.12.2014 14:10 -4,3 C -4,4 C -4,3 C 92 % 1031,3 hPa 0,0 l/m 2,2 km/h (1 Bft) W 279 0 min 0,000 mm 11 W/m -5,4 C -4,3 C 8,0 km/h (2 Bft) 100 %
29.12.2014 14:20 -4,2 C -4,3 C -4,2 C 92 % 1031,3 hPa 0,0 l/m 2,3 km/h (1 Bft) W 280 0 min 0,000 mm 11 W/m -5,3 C -4,2 C 11,3 km/h (2 Bft) 100 %
29.12.2014 14:30 -4,1 C -4,2 C -4,1 C 92 % 1031,2 hPa 0,0 l/m 2,1 km/h (1 Bft) W-SW 240 0 min 0,000 mm 12 W/m -5,2 C -4,1 C 6,4 km/h (2 Bft) 100 %
29.12.2014 14:40 -4,0 C -4,1 C -4,0 C 92 % 1031,3 hPa 0,0 l/m 1,9 km/h (1 Bft) W-SW 255 0 min 0,000 mm 11 W/m -5,1 C -4,0 C 6,4 km/h (2 Bft) 99 %
29.12.2014 14:50 -4,0 C -4,0 C -4,0 C 92 % 1031,3 hPa 0,0 l/m 2,6 km/h (1 Bft) W-SW 258 0 min 0,000 mm 28 W/m -5,1 C -4,0 C 8,0 km/h (2 Bft) 100 %
29.12.2014 15:00 -3,9 C -4,0 C -3,9 C 92 % 1031,4 hPa 0,1 l/m 1,0 km/h (0 Bft) W-SW 251 0 min 0,000 mm 18 W/m -5,0 C -3,9 C 8,0 km/h (2 Bft) 100 %
29.12.2014 15:10 -3,9 C -4,0 C -3,9 C 92 % 1031,4 hPa 0,1 l/m 0,8 km/h (0 Bft) W-SW 248 0 min 0,000 mm 18 W/m -5,0 C -3,9 C 6,4 km/h (2 Bft) 100 %
29.12.2014 15:20 -3,8 C -3,9 C -3,8 C 92 % 1031,6 hPa 0,0 l/m 1,1 km/h (1 Bft) W-NW 298 0 min 0,000 mm 16 W/m -4,9 C -3,8 C 8,0 km/h (2 Bft) 100 %
29.12.2014 15:30 -3,8 C -3,8 C -3,7 C 91 % 1031,6 hPa 0,0 l/m 6,0 km/h (2 Bft) NW 304 0 min 0,000 mm 12 W/m -5,0 C -3,8 C 11,3 km/h (2 Bft) 100 %
29.12.2014 15:40 -3,8 C -3,8 C -3,7 C 91 % 1031,6 hPa 0,0 l/m 4,4 km/h (1 Bft) W 259 0 min 0,000 mm 7 W/m -5,0 C -3,8 C 12,9 km/h (3 Bft) 100 %
29.12.2014 15:50 -3,7 C -3,8 C -3,7 C 91 % 1031,7 hPa 0,0 l/m 3,0 km/h (1 Bft) W-NW 287 0 min 0,000 mm 7 W/m -4,9 C -3,7 C 11,3 km/h (2 Bft) 100 %
29.12.2014 16:00 -3,7 C -3,7 C -3,7 C 91 % 1032,0 hPa 0,0 l/m 2,7 km/h (1 Bft) W-NW 298 0 min 0,000 mm 7 W/m -4,9 C -3,7 C 9,7 km/h (2 Bft) 100 %
29.12.2014 16:10 -3,7 C -3,7 C -3,6 C 91 % 1032,0 hPa 0,0 l/m 1,3 km/h (1 Bft) NW 309 0 min 0,000 mm 5 W/m -4,9 C -3,7 C 6,4 km/h (2 Bft) 100 %
29.12.2014 16:20 -3,7 C -3,7 C -3,7 C 91 % 1032,2 hPa 0,0 l/m 0,0 km/h (0 Bft) NW 311 0 min 0,000 mm 0 W/m -4,9 C -3,7 C 1,6 km/h (1 Bft) 100 %
29.12.2014 16:30 -3,8 C -3,8 C -3,7 C 91 % 1032,3 hPa 0,0 l/m 3,1 km/h (1 Bft) NW 315 0 min 0,000 mm 0 W/m -5,0 C -3,8 C 8,0 km/h (2 Bft) 100 %
29.12.2014 16:40 -3,9 C -3,9 C -3,8 C 92 % 1032,4 hPa 0,0 l/m 1,1 km/h (1 Bft) NW 315 0 min 0,000 mm 0 W/m -5,0 C -3,9 C 6,4 km/h (2 Bft) 100 %
29.12.2014 16:50 -3,9 C -3,9 C -3,8 C 92 % 1032,6 hPa 0,0 l/m 0,0 km/h (0 Bft) NW 315 0 min 0,000 mm 0 W/m -5,0 C -3,9 C 1,6 km/h (1 Bft) 91 %
29.12.2014 17:00 -3,8 C -3,9 C -3,8 C 92 % 1032,7 hPa 0,0 l/m 0,0 km/h (0 Bft) NW 315 0 min 0,000 mm 0 W/m -4,9 C -3,8 C 0,0 km/h (0 Bft) 100 %
29.12.2014 17:10 -3,7 C -3,8 C -3,7 C 92 % 1032,9 hPa 0,0 l/m 1,4 km/h (1 Bft) W 261 0 min 0,000 mm 0 W/m -4,8 C -3,7 C 6,4 km/h (2 Bft) 100 %
29.12.2014 17:20 -3,6 C -3,7 C -3,6 C 92 % 1033,1 hPa 0,0 l/m 0,7 km/h (0 Bft) NW 308 0 min 0,000 mm 0 W/m -4,7 C -3,6 C 4,8 km/h (1 Bft) 100 %
29.12.2014 17:30 -3,4 C -3,6 C -3,4 C 92 % 1033,1 hPa 0,0 l/m 0,0 km/h (0 Bft) NW 308 0 min 0,000 mm 0 W/m -4,5 C -3,4 C 1,6 km/h (1 Bft) 100 %
29.12.2014 17:40 -3,4 C -3,4 C -3,3 C 92 % 1033,3 hPa 0,0 l/m 0,0 km/h (0 Bft) NW 308 0 min 0,000 mm 0 W/m -4,5 C -3,4 C 0,0 km/h (0 Bft) 100 %
29.12.2014 17:50 -3,4 C -3,4 C -3,4 C 92 % 1033,3 hPa 0,0 l/m 0,0 km/h (0 Bft) NW 308 0 min 0,000 mm 0 W/m -4,5 C -3,4 C 1,6 km/h (1 Bft) 100 %
29.12.2014 18:00 -3,4 C -3,4 C -3,4 C 92 % 1033,3 hPa 0,0 l/m 0,1 km/h (0 Bft) NW 308 0 min 0,000 mm 0 W/m -4,5 C -3,4 C 3,2 km/h (1 Bft) 100 %
29.12.2014 18:10 -3,3 C -3,4 C -3,3 C 92 % 1033,4 hPa 0,0 l/m 1,2 km/h (1 Bft) NW 304 0 min 0,000 mm 0 W/m -4,4 C -3,3 C 4,8 km/h (1 Bft) 100 %
29.12.2014 18:20 -3,2 C -3,3 C -3,2 C 92 % 1033,5 hPa 0,1 l/m 0,1 km/h (0 Bft) NW 308 0 min 0,000 mm 0 W/m -4,3 C -3,2 C 3,2 km/h (1 Bft) 100 %
29.12.2014 18:30 -3,1 C -3,2 C -3,0 C 92 % 1033,8 hPa 0,0 l/m 0,2 km/h (0 Bft) NW 308 0 min 0,000 mm 0 W/m -4,2 C -3,1 C 3,2 km/h (1 Bft) 100 %
29.12.2014 18:40 -2,9 C -3,1 C -2,9 C 92 % 1033,9 hPa 0,0 l/m 0,2 km/h (0 Bft) NW 308 0 min 0,000 mm 0 W/m -4,0 C -2,9 C 3,2 km/h (1 Bft) 100 %
29.12.2014 18:50 -2,8 C -2,9 C -2,8 C 92 % 1033,9 hPa 0,1 l/m 0,0 km/h (0 Bft) NW 308 0 min 0,000 mm 0 W/m -3,9 C -2,8 C 3,2 km/h (1 Bft) 100 %
29.12.2014 19:00 -2,8 C -2,8 C -2,7 C 92 % 1034,1 hPa 0,0 l/m 1,4 km/h (1 Bft) N-NW 336 0 min 0,000 mm 0 W/m -3,9 C -2,8 C 6,4 km/h (2 Bft) 100 %
29.12.2014 19:10 -2,8 C -2,8 C -2,8 C 91 % 1034,0 hPa 0,0 l/m 2,0 km/h (1 Bft) NW 306 0 min 0,000 mm 0 W/m -4,1 C -2,8 C 6,4 km/h (2 Bft) 100 %
29.12.2014 19:20 -2,9 C -2,9 C -2,8 C 92 % 1034,0 hPa 0,0 l/m 1,0 km/h (0 Bft) NW 312 0 min 0,000 mm 0 W/m -4,0 C -2,9 C 6,4 km/h (2 Bft) 100 %
29.12.2014 19:30 -3,0 C -3,0 C -2,9 C 92 % 1033,9 hPa 0,0 l/m 0,5 km/h (0 Bft) NW 309 0 min 0,000 mm 0 W/m -4,1 C -3,0 C 4,8 km/h (1 Bft) 100 %
29.12.2014 19:40 -3,2 C -3,2 C -3,0 C 92 % 1034,2 hPa 0,0 l/m 0,0 km/h (0 Bft) NW 309 0 min 0,000 mm 0 W/m -4,3 C -3,2 C 0,0 km/h (0 Bft) 100 %
29.12.2014 19:50 -3,4 C -3,4 C -3,2 C 92 % 1034,4 hPa 0,0 l/m 0,0 km/h (0 Bft) NW 309 0 min 0,000 mm 0 W/m -4,5 C -3,4 C 0,0 km/h (0 Bft) 100 %
29.12.2014 20:00 -3,5 C -3,5 C -3,4 C 92 % 1034,6 hPa 0,0 l/m 0,0 km/h (0 Bft) NW 309 0 min 0,000 mm 0 W/m -4,6 C -3,5 C 0,0 km/h (0 Bft) 100 %
29.12.2014 20:10 -3,4 C -3,5 C -3,4 C 92 % 1034,8 hPa 0,0 l/m 0,0 km/h (0 Bft) NW 309 0 min 0,000 mm 0 W/m -4,5 C -3,4 C 0,0 km/h (0 Bft) 100 %
29.12.2014 20:20 -3,3 C -3,4 C -3,3 C 92 % 1035,0 hPa 0,0 l/m 0,0 km/h (0 Bft) NW 309 0 min 0,000 mm 0 W/m -4,4 C -3,3 C 0,0 km/h (0 Bft) 100 %
29.12.2014 20:30 -3,3 C -3,3 C -3,3 C 92 % 1035,2 hPa 0,0 l/m 0,0 km/h (0 Bft) NW 309 0 min 0,000 mm 0 W/m -4,4 C -3,3 C 0,0 km/h (0 Bft) 100 %
29.12.2014 20:40 -3,4 C -3,4 C -3,3 C 92 % 1035,3 hPa 0,0 l/m 0,0 km/h (0 Bft) NW 309 0 min 0,000 mm 0 W/m -4,5 C -3,4 C 0,0 km/h (0 Bft) 100 %
29.12.2014 20:50 -3,4 C -3,4 C -3,4 C 92 % 1035,4 hPa 0,0 l/m 0,0 km/h (0 Bft) NW 309 0 min 0,000 mm 0 W/m -4,5 C -3,4 C 0,0 km/h (0 Bft) 100 %
29.12.2014 21:00 -3,6 C -3,6 C -3,4 C 92 % 1035,5 hPa 0,0 l/m 0,0 km/h (0 Bft) NW 309 0 min 0,000 mm 0 W/m -4,7 C -3,6 C 0,0 km/h (0 Bft) 100 %
29.12.2014 21:10 -3,7 C -3,7 C -3,6 C 92 % 1035,6 hPa 0,0 l/m 0,0 km/h (0 Bft) N 0 0 min 0,000 mm 0 W/m -4,8 C -3,7 C 0,0 km/h (0 Bft) 100 %
29.12.2014 21:20 -3,9 C -3,9 C -3,7 C 91 % 1035,8 hPa 0,0 l/m 0,0 km/h (0 Bft) N 0 0 min 0,000 mm 0 W/m -5,1 C -3,9 C 0,0 km/h (0 Bft) 100 %
29.12.2014 21:30 -3,9 C -4,0 C -3,9 C 91 % 1035,9 hPa 0,0 l/m 0,0 km/h (0 Bft) N 0 0 min 0,000 mm 0 W/m -5,1 C -3,9 C 0,0 km/h (0 Bft) 100 %
29.12.2014 21:40 -3,9 C -4,0 C -3,9 C 91 % 1036,0 hPa 0,0 l/m 0,0 km/h (0 Bft) NW 315 0 min 0,000 mm 0 W/m -5,1 C -3,9 C 1,6 km/h (1 Bft) 90 %
29.12.2014 21:50 -3,9 C -4,0 C -3,9 C 92 % 1036,0 hPa 0,0 l/m 0,0 km/h (0 Bft) N 0 0 min 0,000 mm 0 W/m -5,0 C -3,9 C 0,0 km/h (0 Bft) 100 %
29.12.2014 22:00 -3,8 C -3,9 C -3,8 C 92 % 1036,1 hPa 0,0 l/m 0,0 km/h (0 Bft) N 0 0 min 0,000 mm 0 W/m -4,9 C -3,8 C 0,0 km/h (0 Bft) 100 %
29.12.2014 22:10 -3,8 C -3,8 C -3,8 C 91 % 1036,1 hPa 0,0 l/m 0,0 km/h (0 Bft) NW 315 0 min 0,000 mm 0 W/m -5,0 C -3,8 C 1,6 km/h (1 Bft) 100 %
29.12.2014 22:20 -3,9 C -3,9 C -3,8 C 92 % 1036,1 hPa 0,0 l/m 0,0 km/h (0 Bft) N 0 0 min 0,000 mm 0 W/m -5,0 C -3,9 C 0,0 km/h (0 Bft) 100 %
29.12.2014 22:30 -4,2 C -4,2 C -3,9 C 91 % 1036,3 hPa 0,0 l/m 0,0 km/h (0 Bft) NW 315 0 min 0,000 mm 0 W/m -5,4 C -4,2 C 3,2 km/h (1 Bft) 100 %
29.12.2014 22:40 -4,3 C -4,3 C -4,2 C 92 % 1036,2 hPa 0,0 l/m 0,0 km/h (0 Bft) N 0 0 min 0,000 mm 0 W/m -5,4 C -4,3 C 0,0 km/h (0 Bft) 91 %
29.12.2014 22:50 -4,3 C -4,4 C -4,3 C 92 % 1036,1 hPa 0,0 l/m 0,0 km/h (0 Bft) W-NW 292 0 min 0,000 mm 0 W/m -5,4 C -4,3 C 1,6 km/h (1 Bft) 100 %
29.12.2014 23:00 -4,1 C -4,3 C -4,1 C 92 % 1036,4 hPa 0,0 l/m 0,0 km/h (0 Bft) N 0 0 min 0,000 mm 0 W/m -5,2 C -4,1 C 0,0 km/h (0 Bft) 100 %
29.12.2014 23:10 -3,9 C -4,1 C -3,9 C 92 % 1036,4 hPa 0,0 l/m 0,0 km/h (0 Bft) N 0 0 min 0,000 mm 0 W/m -5,0 C -3,9 C 0,0 km/h (0 Bft) 100 %
29.12.2014 23:20 -3,7 C -3,9 C -3,7 C 92 % 1036,4 hPa 0,0 l/m 0,0 km/h (0 Bft) N 0 0 min 0,000 mm 0 W/m -4,8 C -3,7 C 0,0 km/h (0 Bft) 100 %
29.12.2014 23:30 -3,5 C -3,7 C -3,5 C 92 % 1036,7 hPa 0,0 l/m 0,0 km/h (0 Bft) N 0 0 min 0,000 mm 0 W/m -4,6 C -3,5 C 0,0 km/h (0 Bft) 100 %
29.12.2014 23:40 -3,4 C -3,6 C -3,4 C 92 % 1036,8 hPa 0,0 l/m 0,0 km/h (0 Bft) N 0 0 min 0,000 mm 0 W/m -4,5 C -3,4 C 0,0 km/h (0 Bft) 100 %
29.12.2014 23:50 -3,3 C -3,4 C -3,3 C 92 % 1036,8 hPa 0,0 l/m 0,0 km/h (0 Bft) N 0 0 min 0,000 mm 0 W/m -4,4 C -3,3 C 0,0 km/h (0 Bft) 100 %
_ Min-Zeit 01:10 01:10 01:10 02:40 13:00 - 00:00 - - - - - 01:10 01:10 00:00 03:30
Minimum _ -11,8 C -11,8 C -11,7 C 85 % 1030,9 hPa - 0,0 km/h (0 Bft) - - - - - -13,4 C -11,8 C 0,0 km/h (0 Bft) 88 %
_ Max-Zeit 19:00 19:00 19:00 02:00 23:40 09:00 11:10 - - 00:00 00:00 12:10 18:50 18:50 11:10 00:10
Maximum _ -2,7 C -2,8 C -2,7 C 92 % 1036,8 hPa 0,4 l/m 8,0 km/h
W (2 Bft)
- - 0 min 0,000 mm 37 W/m -3,9 C -2,8 C 19,3 km/h
W (3 Bft)
100 %
Durchschnitt _ -6,5 C -6,6 C -6,5 C 91 % 1032,9 hPa #2,5 l/m 1,6 km/h (1 Bft) W - #0 min. #0,000 mm 14 W/m -7,7 C -6,5 C 5,5 km/h (1 Bft) 99 %
PRIVATE WETTERSTATION BILLIGHEIM-ALLFELD - www.neckar-odenwald-wetter.de - Holger Sonntag